Time;durP1;ratioP1;P1;durP2;ratioP2;P2;SDS_P1;SDS_P2;PMS_P1;PMS_P2;Temp;Humidity;BMP_temperature;BMP_pressure;BME280_temperature;BME280_humidity;BME280_pressure;Samples;Min_cycle;Max_cycle;Signal;HPM_P1;HPM_P2
2022/01/10 00:02:20;;;;;;;3.73;2.57;;;;;;;;;;5026047;28;20287;-56
2022/01/10 00:04:46;;;;;;;3.53;2.60;;;;;;;;;;5026497;28;20112;-57
2022/01/10 00:07:11;;;;;;;3.40;2.50;;;;;;;;;;5026177;28;20399;-54
2022/01/10 00:09:36;;;;;;;3.80;2.60;;;;;;;;;;5026124;28;20272;-56
2022/01/10 00:12:01;;;;;;;3.75;2.45;;;;;;;;;;5026243;28;20267;-56
2022/01/10 00:14:27;;;;;;;3.38;2.40;;;;;;;;;;5026222;28;20100;-54
2022/01/10 00:16:52;;;;;;;3.75;2.45;;;;;;;;;;5026404;28;20029;-54
2022/01/10 00:19:17;;;;;;;3.05;2.28;;;;;;;;;;5026301;28;20021;-56
2022/01/10 00:21:42;;;;;;;3.75;2.60;;;;;;;;;;5026140;28;20021;-56
2022/01/10 00:24:08;;;;;;;3.43;2.50;;;;;;;;;;5025559;28;20080;-56
2022/01/10 00:26:33;;;;;;;3.50;2.50;;;;;;;;;;5026195;28;20029;-56
2022/01/10 00:28:58;;;;;;;3.63;2.50;;;;;;;;;;5026090;28;20021;-56
2022/01/10 00:31:23;;;;;;;3.90;2.50;;;;;;;;;;5026355;28;20432;-57
2022/01/10 00:33:49;;;;;;;3.53;2.33;;;;;;;;;;5025764;28;20512;-55
2022/01/10 00:36:14;;;;;;;3.60;2.60;;;;;;;;;;5025278;28;20021;-57
2022/01/10 00:38:39;;;;;;;3.40;2.43;;;;;;;;;;5026241;28;20018;-56
2022/01/10 00:41:04;;;;;;;3.20;2.30;;;;;;;;;;5025932;28;20370;-57
2022/01/10 00:43:35;;;;;;;3.33;2.38;;;;;;;;;;5025213;28;20268;-57
2022/01/10 00:46:01;;;;;;;3.20;2.42;;;;;;;;;;5025966;28;20037;-56
2022/01/10 00:48:26;;;;;;;3.47;2.28;;;;;;;;;;5026115;28;20163;-57
2022/01/10 00:50:52;;;;;;;3.42;2.13;;;;;;;;;;5026659;28;20109;-56
2022/01/10 00:53:17;;;;;;;3.33;2.45;;;;;;;;;;5026116;28;20321;-56
2022/01/10 00:55:42;;;;;;;3.45;2.35;;;;;;;;;;5026069;28;20423;-56
2022/01/10 00:58:07;;;;;;;3.13;2.17;;;;;;;;;;5025412;28;20048;-56
2022/01/10 01:00:33;;;;;;;3.00;2.23;;;;;;;;;;5026061;28;20264;-55
2022/01/10 01:02:58;;;;;;;3.28;2.30;;;;;;;;;;5025690;28;20010;-53
2022/01/10 01:05:24;;;;;;;2.72;2.30;;;;;;;;;;5026100;28;20044;-53
2022/01/10 01:07:49;;;;;;;3.10;2.47;;;;;;;;;;5026256;28;20578;-56
2022/01/10 01:12:51;;;;;;;3.05;2.30;;;;;;;;;;5026706;28;20112;-57
2022/01/10 01:15:26;;;;;;;2.80;1.92;;;;;;;;;;5024014;28;20013;-55
2022/01/10 01:24:01;;;;;;;2.70;2.10;;;;;;;;;;5015218;28;20484;-58
2022/01/10 01:26:41;;;;;;;3.55;2.50;;;;;;;;;;4964041;28;20035;-56
2022/01/10 01:29:07;;;;;;;3.08;2.15;;;;;;;;;;4964359;28;20019;-58
2022/01/10 01:31:33;;;;;;;2.95;2.08;;;;;;;;;;4994912;28;20037;-57
2022/01/10 01:33:58;;;;;;;3.90;2.40;;;;;;;;;;5025145;28;20029;-55
2022/01/10 01:36:25;;;;;;;3.60;2.38;;;;;;;;;;5025031;28;20025;-57
2022/01/10 01:38:51;;;;;;;3.13;2.28;;;;;;;;;;5024855;28;20048;-57
2022/01/10 01:43:50;;;;;;;2.83;1.85;;;;;;;;;;5024854;28;20090;-56
2022/01/10 01:46:16;;;;;;;3.10;2.13;;;;;;;;;;5024749;28;20499;-57
2022/01/10 01:48:41;;;;;;;2.78;2.03;;;;;;;;;;5024644;28;20823;-55
2022/01/10 01:51:06;;;;;;;2.83;2.10;;;;;;;;;;5024696;28;20033;-56
2022/01/10 01:53:31;;;;;;;2.58;2.08;;;;;;;;;;5024194;28;20785;-54
2022/01/10 01:55:57;;;;;;;3.10;1.73;;;;;;;;;;5024618;28;20028;-56
2022/01/10 01:58:22;;;;;;;2.38;1.90;;;;;;;;;;5024408;28;20025;-56
2022/01/10 02:00:48;;;;;;;3.03;2.00;;;;;;;;;;5023246;28;20057;-54
2022/01/10 02:03:13;;;;;;;3.13;1.92;;;;;;;;;;5024246;28;20476;-56
2022/01/10 02:05:38;;;;;;;2.87;2.27;;;;;;;;;;5024493;28;20032;-57
2022/01/10 02:08:03;;;;;;;3.10;1.83;;;;;;;;;;5024446;28;20040;-57
2022/01/10 02:10:29;;;;;;;2.90;2.03;;;;;;;;;;5024455;28;20108;-58
2022/01/10 02:12:54;;;;;;;2.43;1.77;;;;;;;;;;5024266;28;20413;-57
2022/01/10 02:15:25;;;;;;;2.87;2.07;;;;;;;;;;5024148;28;20554;-54
2022/01/10 02:17:54;;;;;;;3.22;1.80;;;;;;;;;;5024041;28;20615;-55
2022/01/10 02:20:20;;;;;;;3.75;2.47;;;;;;;;;;5024083;28;20049;-57
2022/01/10 02:22:45;;;;;;;2.70;2.00;;;;;;;;;;5024018;28;20641;-56
2022/01/10 02:25:10;;;;;;;2.50;1.70;;;;;;;;;;5024415;28;20501;-55
2022/01/10 02:27:36;;;;;;;3.28;1.88;;;;;;;;;;5023977;28;20114;-57
2022/01/10 02:30:01;;;;;;;2.97;2.17;;;;;;;;;;5024100;28;20017;-53
2022/01/10 02:32:26;;;;;;;3.08;1.92;;;;;;;;;;5023655;28;20085;-56
2022/01/10 02:34:51;;;;;;;2.53;1.90;;;;;;;;;;5024184;28;20091;-58
2022/01/10 02:37:32;;;;;;;2.47;1.70;;;;;;;;;;5024009;28;20322;-56
2022/01/10 02:39:59;;;;;;;2.65;1.80;;;;;;;;;;5023863;28;20283;-56
2022/01/10 02:42:24;;;;;;;2.90;1.90;;;;;;;;;;5023438;28;20036;-56
2022/01/10 02:44:49;;;;;;;3.67;2.03;;;;;;;;;;5024117;28;20495;-55
2022/01/10 02:47:14;;;;;;;2.60;1.60;;;;;;;;;;5023774;28;20889;-56
2022/01/10 02:49:40;;;;;;;2.17;1.60;;;;;;;;;;5023867;28;20029;-57
2022/01/10 02:52:06;;;;;;;2.78;1.80;;;;;;;;;;5023654;28;20128;-57
2022/01/10 02:54:32;;;;;;;3.00;2.00;;;;;;;;;;5023346;28;20818;-56
2022/01/10 02:56:57;;;;;;;2.83;1.70;;;;;;;;;;5023808;28;20032;-57
2022/01/10 02:59:22;;;;;;;1.83;1.53;;;;;;;;;;5023701;28;20717;-54
2022/01/10 03:01:48;;;;;;;2.63;1.80;;;;;;;;;;5023374;28;20500;-54
2022/01/10 03:04:15;;;;;;;2.30;1.70;;;;;;;;;;5023214;28;20025;-55
2022/01/10 03:06:40;;;;;;;2.33;1.67;;;;;;;;;;5021344;28;20030;-56
2022/01/10 03:09:06;;;;;;;2.33;1.70;;;;;;;;;;5015594;28;20013;-56
2022/01/10 03:11:38;;;;;;;2.22;1.50;;;;;;;;;;5027656;28;20033;-57
2022/01/10 03:14:03;;;;;;;2.83;1.90;;;;;;;;;;5024838;28;20416;-58
2022/01/10 03:16:29;;;;;;;2.70;1.70;;;;;;;;;;5026225;28;20032;-56
2022/01/10 03:18:54;;;;;;;2.40;1.80;;;;;;;;;;5027537;28;20397;-57
2022/01/10 03:21:19;;;;;;;3.13;1.70;;;;;;;;;;5027671;28;20482;-57
2022/01/10 03:23:45;;;;;;;2.33;1.63;;;;;;;;;;5013171;28;20140;-56
2022/01/10 03:26:10;;;;;;;2.45;1.55;;;;;;;;;;5024007;28;20310;-53
2022/01/10 03:28:35;;;;;;;2.87;1.93;;;;;;;;;;5026862;28;20025;-57
2022/01/10 03:31:00;;;;;;;2.37;1.63;;;;;;;;;;5027521;28;20906;-55
2022/01/10 03:33:26;;;;;;;2.50;1.80;;;;;;;;;;5027405;28;20801;-54
2022/01/10 03:35:51;;;;;;;2.33;1.50;;;;;;;;;;5027221;28;20021;-56
2022/01/10 03:38:16;;;;;;;2.53;1.73;;;;;;;;;;5027026;28;20025;-56
2022/01/10 03:40:41;;;;;;;3.28;1.55;;;;;;;;;;5027133;28;20043;-56
2022/01/10 03:43:07;;;;;;;2.50;1.67;;;;;;;;;;5026931;28;20408;-57
2022/01/10 03:45:32;;;;;;;2.60;2.00;;;;;;;;;;5027002;28;20552;-56
2022/01/10 03:47:57;;;;;;;3.08;1.80;;;;;;;;;;5026917;28;20679;-56
2022/01/10 03:50:22;;;;;;;2.33;1.73;;;;;;;;;;5026742;28;20119;-56
2022/01/10 03:52:48;;;;;;;2.60;1.47;;;;;;;;;;5026838;28;20416;-58
2022/01/10 03:55:13;;;;;;;2.35;1.70;;;;;;;;;;5026664;28;20408;-55
2022/01/10 03:57:38;;;;;;;2.88;1.60;;;;;;;;;;5026995;28;20029;-58
2022/01/10 04:00:06;;;;;;;3.23;2.33;;;;;;;;;;5026534;28;20411;-56
2022/01/10 04:02:33;;;;;;;2.50;1.70;;;;;;;;;;5026462;28;20272;-56
2022/01/10 04:04:58;;;;;;;2.20;1.50;;;;;;;;;;5026797;28;20026;-54
2022/01/10 04:07:23;;;;;;;2.70;1.70;;;;;;;;;;5026512;28;20061;-57
2022/01/10 04:09:48;;;;;;;3.03;1.70;;;;;;;;;;5026744;28;20026;-56
2022/01/10 04:12:14;;;;;;;2.40;1.53;;;;;;;;;;5026465;28;20276;-56
2022/01/10 04:14:39;;;;;;;2.58;1.70;;;;;;;;;;5022172;28;20263;-56
2022/01/10 04:17:04;;;;;;;1.63;1.13;;;;;;;;;;5026385;28;20021;-57
2022/01/10 04:19:29;;;;;;;2.10;1.60;;;;;;;;;;5026504;28;20092;-57
2022/01/10 04:21:55;;;;;;;2.77;1.80;;;;;;;;;;5026607;28;20454;-56
2022/01/10 04:24:20;;;;;;;2.73;1.60;;;;;;;;;;5025922;28;20465;-56
2022/01/10 04:26:46;;;;;;;2.23;1.60;;;;;;;;;;5026300;28;20469;-56
2022/01/10 04:29:11;;;;;;;2.47;1.70;;;;;;;;;;5026213;28;20088;-55
2022/01/10 04:31:37;;;;;;;2.05;1.60;;;;;;;;;;5026446;28;20030;-57
2022/01/10 04:34:02;;;;;;;2.33;1.57;;;;;;;;;;5025592;28;20025;-55
2022/01/10 04:36:27;;;;;;;2.53;1.73;;;;;;;;;;5025656;28;20272;-57
2022/01/10 04:38:52;;;;;;;2.28;1.63;;;;;;;;;;5026216;28;20280;-58
2022/01/10 04:41:19;;;;;;;1.90;1.50;;;;;;;;;;5026294;28;20022;-54
2022/01/10 04:43:44;;;;;;;3.00;1.88;;;;;;;;;;5025987;28;20032;-57
2022/01/10 04:46:09;;;;;;;2.20;1.53;;;;;;;;;;5025920;28;20036;-57
2022/01/10 04:48:35;;;;;;;2.70;1.60;;;;;;;;;;5020872;28;20038;-57
2022/01/10 04:53:31;;;;;;;2.28;1.45;;;;;;;;;;5025730;28;20040;-55
2022/01/10 04:55:56;;;;;;;2.47;1.53;;;;;;;;;;5025715;28;20448;-56
2022/01/10 04:58:22;;;;;;;1.83;1.20;;;;;;;;;;5025647;28;20753;-53
2022/01/10 05:00:50;;;;;;;2.08;1.40;;;;;;;;;;5025928;28;20029;-58
2022/01/10 05:03:17;;;;;;;2.45;1.65;;;;;;;;;;5025809;28;20048;-57
2022/01/10 05:05:42;;;;;;;3.13;1.30;;;;;;;;;;5025462;28;20061;-57
2022/01/10 05:08:09;;;;;;;2.15;1.55;;;;;;;;;;5025084;28;20060;-57
2022/01/10 05:10:35;;;;;;;1.83;1.15;;;;;;;;;;5025021;28;20567;-56
2022/01/10 05:13:00;;;;;;;1.85;1.30;;;;;;;;;;5025271;28;20104;-55
2022/01/10 05:15:25;;;;;;;2.27;1.67;;;;;;;;;;5018886;28;20045;-57
2022/01/10 05:17:50;;;;;;;2.30;1.40;;;;;;;;;;5020213;28;20659;-56
2022/01/10 05:20:16;;;;;;;1.90;1.20;;;;;;;;;;5025086;28;20298;-56
2022/01/10 05:22:41;;;;;;;2.60;1.47;;;;;;;;;;5022778;28;20049;-55
2022/01/10 05:25:06;;;;;;;2.22;1.58;;;;;;;;;;5007155;28;20220;-54
2022/01/10 05:27:32;;;;;;;1.98;1.10;;;;;;;;;;5006925;28;20113;-56
2022/01/10 05:29:57;;;;;;;1.63;1.27;;;;;;;;;;5005781;28;20021;-56
2022/01/10 05:32:22;;;;;;;1.70;1.10;;;;;;;;;;5006507;28;20711;-57
2022/01/10 05:34:47;;;;;;;2.67;1.40;;;;;;;;;;5011071;28;20801;-55
2022/01/10 05:37:12;;;;;;;1.73;1.33;;;;;;;;;;5017762;28;20382;-56
2022/01/10 05:39:38;;;;;;;2.20;1.40;;;;;;;;;;4989162;28;20330;-54
2022/01/10 05:42:03;;;;;;;2.37;1.37;;;;;;;;;;5024593;28;20029;-55
2022/01/10 05:44:28;;;;;;;2.22;1.38;;;;;;;;;;5024537;28;20363;-53
2022/01/10 05:46:54;;;;;;;2.63;1.60;;;;;;;;;;5024805;28;20211;-56
2022/01/10 05:49:25;;;;;;;2.25;1.30;;;;;;;;;;5024891;28;21196;-54
2022/01/10 05:51:50;;;;;;;1.88;1.20;;;;;;;;;;5024771;28;20029;-57
2022/01/10 05:54:16;;;;;;;1.85;1.40;;;;;;;;;;5023498;28;20045;-57
2022/01/10 05:56:41;;;;;;;2.33;1.35;;;;;;;;;;5007486;28;20033;-55
2022/01/10 05:59:06;;;;;;;2.00;1.30;;;;;;;;;;5010560;28;20484;-60
2022/01/10 06:01:31;;;;;;;1.70;1.10;;;;;;;;;;5024622;28;20467;-57
2022/01/10 06:03:56;;;;;;;2.70;1.70;;;;;;;;;;5024841;28;20265;-54
2022/01/10 06:06:22;;;;;;;1.93;1.20;;;;;;;;;;5026511;28;20048;-56
2022/01/10 06:08:47;;;;;;;1.90;1.50;;;;;;;;;;5026737;28;20389;-57
2022/01/10 06:11:12;;;;;;;1.90;1.33;;;;;;;;;;5026182;28;20056;-53
2022/01/10 06:13:37;;;;;;;2.80;1.77;;;;;;;;;;5026186;28;20033;-53
2022/01/10 06:16:03;;;;;;;1.58;1.17;;;;;;;;;;5019900;28;20276;-54
2022/01/10 06:18:29;;;;;;;2.33;1.30;;;;;;;;;;5024118;28;20091;-55
2022/01/10 06:20:54;;;;;;;1.83;1.10;;;;;;;;;;5023253;28;20030;-56
2022/01/10 06:23:20;;;;;;;2.15;1.20;;;;;;;;;;5005868;28;20054;-55
2022/01/10 06:25:45;;;;;;;2.95;1.20;;;;;;;;;;5007596;28;20022;-57
2022/01/10 06:28:10;;;;;;;2.00;1.20;;;;;;;;;;5009124;28;20484;-53
2022/01/10 06:30:35;;;;;;;2.00;1.30;;;;;;;;;;5023235;28;20261;-56
2022/01/10 06:33:01;;;;;;;3.03;1.00;;;;;;;;;;5026633;28;20020;-58
2022/01/10 06:35:26;;;;;;;1.93;1.23;;;;;;;;;;5021290;28;20030;-56
2022/01/10 06:37:51;;;;;;;1.65;1.00;;;;;;;;;;5009039;28;20002;-56
2022/01/10 06:40:16;;;;;;;2.08;1.10;;;;;;;;;;5005305;28;20044;-58
2022/01/10 06:42:42;;;;;;;2.70;1.23;;;;;;;;;;5006473;28;20010;-55
2022/01/10 06:45:07;;;;;;;1.90;1.20;;;;;;;;;;5007269;28;20073;-57
2022/01/10 06:47:33;;;;;;;2.55;1.20;;;;;;;;;;5005188;28;20045;-56
2022/01/10 06:49:58;;;;;;;2.37;1.03;;;;;;;;;;5005470;28;20669;-55
2022/01/10 06:52:23;;;;;;;1.73;1.10;;;;;;;;;;5015640;28;20287;-57
2022/01/10 06:54:48;;;;;;;1.57;1.17;;;;;;;;;;5015893;28;20117;-59
2022/01/10 06:57:14;;;;;;;1.97;1.37;;;;;;;;;;5007686;28;20265;-55
2022/01/10 06:59:39;;;;;;;1.40;1.00;;;;;;;;;;5015336;28;20264;-57
2022/01/10 07:02:04;;;;;;;2.40;1.27;;;;;;;;;;5023744;28;20310;-55
2022/01/10 07:04:29;;;;;;;1.60;1.10;;;;;;;;;;5023663;28;20694;-58
2022/01/10 07:06:55;;;;;;;2.17;1.20;;;;;;;;;;5021342;28;20061;-55
2022/01/10 07:09:20;;;;;;;1.58;1.08;;;;;;;;;;5006141;28;20040;-59
2022/01/10 07:11:45;;;;;;;1.63;1.10;;;;;;;;;;5020407;28;20711;-59
2022/01/10 07:14:12;;;;;;;1.83;1.20;;;;;;;;;;5005147;28;20033;-56
2022/01/10 07:16:37;;;;;;;2.20;1.00;;;;;;;;;;5008068;28;20570;-57
2022/01/10 07:19:02;;;;;;;1.77;0.93;;;;;;;;;;5009767;28;20049;-54
2022/01/10 07:21:28;;;;;;;1.48;1.10;;;;;;;;;;5005049;28;20273;-58
2022/01/10 07:23:53;;;;;;;1.80;1.10;;;;;;;;;;5008935;28;20041;-57
2022/01/10 07:26:18;;;;;;;1.70;1.13;;;;;;;;;;5003724;28;20288;-60
2022/01/10 07:28:43;;;;;;;1.43;1.00;;;;;;;;;;5003618;28;20704;-54
2022/01/10 07:31:09;;;;;;;2.03;1.00;;;;;;;;;;5008904;28;20277;-54
2022/01/10 07:33:34;;;;;;;2.10;1.00;;;;;;;;;;5010190;28;20432;-54
2022/01/10 07:36:00;;;;;;;1.60;1.10;;;;;;;;;;5016018;28;20407;-53
2022/01/10 07:38:25;;;;;;;1.38;0.98;;;;;;;;;;5016619;28;20061;-57
2022/01/10 07:40:50;;;;;;;2.63;1.20;;;;;;;;;;5016092;28;20028;-55
2022/01/10 07:43:16;;;;;;;1.40;0.90;;;;;;;;;;5002737;28;20783;-54
2022/01/10 07:45:41;;;;;;;2.00;1.30;;;;;;;;;;5004294;28;20543;-54
2022/01/10 07:48:06;;;;;;;2.40;1.20;;;;;;;;;;5013675;28;20044;-53
2022/01/10 07:50:31;;;;;;;2.10;1.20;;;;;;;;;;5017855;28;20124;-56
2022/01/10 07:52:56;;;;;;;1.80;1.20;;;;;;;;;;5020460;28;20025;-54
2022/01/10 07:55:22;;;;;;;2.13;1.10;;;;;;;;;;5025885;28;20300;-53
2022/01/10 07:57:47;;;;;;;1.88;0.98;;;;;;;;;;5027831;28;20104;-55
2022/01/10 08:00:12;;;;;;;2.67;1.23;;;;;;;;;;5011368;28;20520;-56
2022/01/10 08:02:38;;;;;;;1.40;1.13;;;;;;;;;;5008069;28;20037;-58
2022/01/10 08:05:03;;;;;;;2.78;1.60;;;;;;;;;;5018117;28;20054;-54
2022/01/10 08:07:28;;;;;;;2.60;1.30;;;;;;;;;;5007122;28;20392;-55
2022/01/10 08:09:54;;;;;;;1.77;1.07;;;;;;;;;;5007611;28;20029;-53
2022/01/10 08:12:19;;;;;;;2.40;1.27;;;;;;;;;;5009955;28;20279;-54
2022/01/10 08:14:44;;;;;;;2.47;1.20;;;;;;;;;;5008186;28;20024;-54
2022/01/10 08:17:09;;;;;;;2.63;1.20;;;;;;;;;;5011031;28;20017;-55
2022/01/10 08:19:34;;;;;;;2.30;1.37;;;;;;;;;;5013840;28;20805;-54
2022/01/10 08:22:00;;;;;;;2.67;1.30;;;;;;;;;;5008275;28;20273;-55
2022/01/10 08:24:26;;;;;;;3.30;1.20;;;;;;;;;;5005284;28;20053;-54
2022/01/10 08:26:51;;;;;;;2.20;1.30;;;;;;;;;;5020492;28;20045;-54
2022/01/10 08:29:16;;;;;;;2.17;1.40;;;;;;;;;;5006239;28;20881;-54
2022/01/10 08:31:42;;;;;;;2.77;1.37;;;;;;;;;;5007782;28;20030;-53
2022/01/10 08:34:07;;;;;;;2.50;1.40;;;;;;;;;;5007616;28;20033;-55
2022/01/10 08:36:32;;;;;;;2.08;1.42;;;;;;;;;;5007357;28;20026;-56
2022/01/10 08:38:58;;;;;;;2.33;1.35;;;;;;;;;;5008783;28;20033;-55
2022/01/10 08:41:23;;;;;;;2.63;1.40;;;;;;;;;;5012205;28;20040;-54
2022/01/10 08:43:48;;;;;;;2.17;1.20;;;;;;;;;;5007059;28;20356;-55
2022/01/10 08:46:13;;;;;;;2.07;1.30;;;;;;;;;;5020563;28;20284;-55
2022/01/10 08:48:40;;;;;;;2.27;1.40;;;;;;;;;;5007745;28;20029;-54
2022/01/10 08:51:05;;;;;;;5.45;1.88;;;;;;;;;;5016136;28;20108;-53
2022/01/10 08:53:30;;;;;;;2.53;1.37;;;;;;;;;;5023353;28;20183;-54
2022/01/10 08:55:56;;;;;;;2.57;1.23;;;;;;;;;;5009648;28;20298;-55
2022/01/10 08:58:21;;;;;;;2.13;1.20;;;;;;;;;;5008139;28;20284;-53
2022/01/10 09:00:47;;;;;;;2.60;1.50;;;;;;;;;;5009072;28;20272;-54
2022/01/10 09:03:13;;;;;;;2.50;1.40;;;;;;;;;;5008710;28;20659;-54
2022/01/10 09:05:38;;;;;;;2.80;1.50;;;;;;;;;;5006522;28;20034;-57
2022/01/10 09:08:03;;;;;;;2.63;1.40;;;;;;;;;;5008941;28;20119;-56
2022/01/10 09:10:29;;;;;;;2.50;1.50;;;;;;;;;;5006316;28;20025;-53
2022/01/10 09:12:54;;;;;;;2.42;1.60;;;;;;;;;;5008295;28;20018;-56
2022/01/10 09:15:19;;;;;;;2.67;1.50;;;;;;;;;;5006570;28;20175;-53
2022/01/10 09:17:44;;;;;;;4.22;1.30;;;;;;;;;;5006608;28;20110;-53
2022/01/10 09:20:10;;;;;;;2.87;1.40;;;;;;;;;;5006645;28;20534;-55
2022/01/10 09:22:35;;;;;;;3.40;2.00;;;;;;;;;;5005961;28;20513;-53
2022/01/10 09:25:00;;;;;;;4.17;1.50;;;;;;;;;;5008358;28;20028;-54
2022/01/10 09:27:26;;;;;;;2.00;1.30;;;;;;;;;;5006298;28;20749;-54
2022/01/10 09:29:51;;;;;;;2.63;1.50;;;;;;;;;;5005954;28;20033;-55
2022/01/10 09:32:16;;;;;;;2.77;1.47;;;;;;;;;;5006591;28;20271;-53
2022/01/10 09:34:41;;;;;;;3.30;1.48;;;;;;;;;;5007912;28;20353;-57
2022/01/10 09:37:07;;;;;;;2.33;1.35;;;;;;;;;;5005896;28;20022;-59
2022/01/10 09:39:32;;;;;;;2.40;1.37;;;;;;;;;;5005164;28;20671;-59
2022/01/10 09:41:57;;;;;;;2.67;1.45;;;;;;;;;;5006156;28;20416;-54
2022/01/10 09:44:22;;;;;;;2.20;1.48;;;;;;;;;;5003749;28;20076;-54
2022/01/10 09:46:48;;;;;;;2.15;1.30;;;;;;;;;;5006206;28;20685;-53
2022/01/10 09:49:13;;;;;;;3.38;1.50;;;;;;;;;;5012496;28;20033;-55
2022/01/10 09:51:38;;;;;;;2.63;1.60;;;;;;;;;;5025175;28;20009;-54
2022/01/10 09:54:03;;;;;;;2.20;1.60;;;;;;;;;;5016592;28;20695;-53
2022/01/10 09:56:29;;;;;;;2.30;1.42;;;;;;;;;;5011595;28;20616;-53
2022/01/10 09:58:54;;;;;;;2.58;1.50;;;;;;;;;;5008189;28;20485;-53
2022/01/10 10:01:20;;;;;;;2.17;1.52;;;;;;;;;;5018099;28;20039;-59
2022/01/10 10:03:46;;;;;;;2.38;1.30;;;;;;;;;;5010810;28;20013;-55
2022/01/10 10:06:11;;;;;;;3.30;1.45;;;;;;;;;;5005275;28;20034;-55
2022/01/10 10:08:37;;;;;;;2.97;1.60;;;;;;;;;;5012000;28;20042;-55
2022/01/10 10:11:03;;;;;;;3.60;1.70;;;;;;;;;;5024587;28;20115;-60
2022/01/10 10:13:28;;;;;;;3.35;1.30;;;;;;;;;;5024352;28;20041;-56
2022/01/10 10:15:55;;;;;;;2.33;1.50;;;;;;;;;;5024568;28;20052;-57
2022/01/10 10:18:21;;;;;;;2.53;1.40;;;;;;;;;;5024502;28;20327;-58
2022/01/10 10:20:46;;;;;;;2.75;1.70;;;;;;;;;;5024072;28;20064;-54
2022/01/10 10:23:14;;;;;;;2.40;1.50;;;;;;;;;;5024194;28;20053;-59
2022/01/10 10:25:46;;;;;;;3.15;1.50;;;;;;;;;;5024016;28;20026;-58
2022/01/10 10:28:12;;;;;;;2.47;1.50;;;;;;;;;;5016824;28;21384;-58
2022/01/10 10:30:38;;;;;;;3.22;1.50;;;;;;;;;;5020569;28;20025;-57
2022/01/10 10:33:13;;;;;;;2.05;1.38;;;;;;;;;;5024065;28;20649;-60
2022/01/10 10:35:38;;;;;;;2.17;1.55;;;;;;;;;;5022224;28;20026;-55
2022/01/10 10:38:04;;;;;;;3.60;1.83;;;;;;;;;;5023280;28;20428;-60
2022/01/10 10:40:29;;;;;;;2.72;1.75;;;;;;;;;;5022851;28;20415;-58
2022/01/10 10:42:56;;;;;;;3.17;1.80;;;;;;;;;;5011672;28;20096;-54
2022/01/10 10:45:24;;;;;;;3.20;1.80;;;;;;;;;;5010305;28;20478;-58
2022/01/10 10:47:49;;;;;;;2.88;1.77;;;;;;;;;;5023917;28;20516;-58
2022/01/10 10:50:14;;;;;;;4.20;1.90;;;;;;;;;;5022679;28;20030;-55
2022/01/10 10:52:41;;;;;;;2.70;2.07;;;;;;;;;;5023291;28;20033;-55
2022/01/10 10:55:10;;;;;;;3.25;1.65;;;;;;;;;;5012345;28;20260;-56
2022/01/10 10:57:35;;;;;;;2.78;1.75;;;;;;;;;;5004909;28;20587;-54
2022/01/10 11:00:01;;;;;;;2.90;1.77;;;;;;;;;;5014170;28;20022;-54
2022/01/10 11:02:27;;;;;;;3.95;1.90;;;;;;;;;;5022794;28;20075;-55
2022/01/10 11:04:52;;;;;;;3.30;1.80;;;;;;;;;;5006675;28;20026;-54
2022/01/10 11:07:21;;;;;;;3.38;2.08;;;;;;;;;;5005444;28;20458;-58
2022/01/10 11:09:46;;;;;;;2.90;2.10;;;;;;;;;;5017732;28;20033;-58
2022/01/10 11:12:13;;;;;;;2.53;1.80;;;;;;;;;;5011717;28;20280;-55
2022/01/10 11:14:39;;;;;;;3.25;2.00;;;;;;;;;;5017565;28;20036;-53
2022/01/10 11:17:04;;;;;;;2.73;1.60;;;;;;;;;;5010442;28;20029;-61
2022/01/10 11:19:30;;;;;;;2.92;2.00;;;;;;;;;;5013880;28;20767;-58
2022/01/10 11:22:05;;;;;;;2.92;1.98;;;;;;;;;;5019104;28;20108;-55
2022/01/10 11:24:43;;;;;;;3.53;1.92;;;;;;;;;;5025143;28;20515;-57
2022/01/10 11:27:28;;;;;;;2.83;1.52;;;;;;;;;;5026164;28;20048;-62
2022/01/10 11:29:55;;;;;;;2.90;1.90;;;;;;;;;;5027163;28;20023;-57
2022/01/10 11:32:20;;;;;;;3.00;1.92;;;;;;;;;;5023694;28;20025;-58
2022/01/10 11:34:46;;;;;;;3.95;2.10;;;;;;;;;;5013458;28;20024;-58
2022/01/10 11:37:12;;;;;;;3.50;1.70;;;;;;;;;;5018185;28;20092;-55
2022/01/10 11:39:37;;;;;;;2.50;1.60;;;;;;;;;;5027480;28;20129;-60
2022/01/10 11:42:11;;;;;;;3.13;1.93;;;;;;;;;;5019982;28;20354;-59
2022/01/10 11:44:38;;;;;;;3.35;1.70;;;;;;;;;;5024339;28;20684;-57
2022/01/10 11:47:03;;;;;;;2.63;1.73;;;;;;;;;;5019300;28;20041;-57
2022/01/10 11:49:30;;;;;;;3.42;1.80;;;;;;;;;;5033322;28;20107;-57
2022/01/10 11:51:56;;;;;;;3.50;1.70;;;;;;;;;;5031962;28;20484;-55
2022/01/10 11:54:40;;;;;;;2.78;1.77;;;;;;;;;;5010458;28;20040;-56
2022/01/10 11:57:09;;;;;;;3.67;1.77;;;;;;;;;;5009697;28;20028;-59
2022/01/10 11:59:35;;;;;;;3.97;1.80;;;;;;;;;;5009734;28;20488;-54
2022/01/10 12:02:10;;;;;;;2.25;1.60;;;;;;;;;;5009557;28;20053;-59
2022/01/10 12:04:36;;;;;;;2.63;1.80;;;;;;;;;;5012804;28;20034;-59
2022/01/10 12:07:02;;;;;;;2.42;1.70;;;;;;;;;;5012275;28;20029;-58
2022/01/10 12:09:28;;;;;;;2.72;1.60;;;;;;;;;;5012051;28;20025;-57
2022/01/10 12:11:53;;;;;;;3.05;2.00;;;;;;;;;;5010352;28;20481;-58
2022/01/10 12:14:19;;;;;;;3.08;1.77;;;;;;;;;;5006595;28;20041;-59
2022/01/10 12:16:45;;;;;;;2.55;1.63;;;;;;;;;;5010882;28;20025;-59
2022/01/10 12:19:10;;;;;;;2.73;1.70;;;;;;;;;;5010733;28;20472;-58
2022/01/10 12:21:35;;;;;;;3.20;1.63;;;;;;;;;;5013869;28;20392;-58
2022/01/10 12:24:01;;;;;;;3.42;1.90;;;;;;;;;;5019581;28;20142;-54
2022/01/10 12:26:26;;;;;;;2.50;1.80;;;;;;;;;;5022676;28;20033;-59
2022/01/10 12:28:58;;;;;;;2.63;1.75;;;;;;;;;;5019518;28;20029;-57
2022/01/10 12:31:25;;;;;;;2.85;1.77;;;;;;;;;;5015105;28;20083;-56
2022/01/10 12:33:50;;;;;;;3.75;2.05;;;;;;;;;;5026941;28;20112;-59
2022/01/10 12:36:19;;;;;;;2.88;1.80;;;;;;;;;;5027124;28;20104;-57
2022/01/10 12:38:47;;;;;;;3.13;1.88;;;;;;;;;;5023894;28;20079;-58
2022/01/10 12:41:13;;;;;;;2.55;1.80;;;;;;;;;;5026624;28;20020;-56
2022/01/10 12:43:38;;;;;;;2.53;1.70;;;;;;;;;;5026926;28;20025;-58
2022/01/10 12:46:03;;;;;;;2.50;1.73;;;;;;;;;;5026396;28;20025;-59
2022/01/10 12:48:28;;;;;;;2.85;1.65;;;;;;;;;;5026649;28;20282;-54
2022/01/10 12:50:54;;;;;;;3.70;2.37;;;;;;;;;;5026396;28;20021;-59
2022/01/10 12:53:20;;;;;;;2.88;2.00;;;;;;;;;;5025085;28;20284;-57
2022/01/10 12:55:45;;;;;;;3.08;1.90;;;;;;;;;;5021548;28;20463;-56
2022/01/10 12:58:10;;;;;;;3.53;1.75;;;;;;;;;;5020401;28;20023;-59
2022/01/10 13:00:36;;;;;;;2.55;1.80;;;;;;;;;;5022038;28;20049;-55
2022/01/10 13:03:01;;;;;;;2.58;1.80;;;;;;;;;;5020086;28;20024;-56
2022/01/10 13:05:26;;;;;;;2.90;1.88;;;;;;;;;;5016243;28;20472;-60
2022/01/10 13:07:53;;;;;;;3.17;2.23;;;;;;;;;;5024880;28;20060;-58
2022/01/10 13:10:23;;;;;;;2.33;1.60;;;;;;;;;;5020935;28;20269;-56
2022/01/10 13:12:48;;;;;;;;;;;;;;;;;;5006279;28;20080;-55
2022/01/10 13:15:14;;;;;;;2.73;1.60;;;;;;;;;;5021256;28;19916;-57
2022/01/10 13:17:40;;;;;;;2.95;1.88;;;;;;;;;;5005633;28;20105;-55
2022/01/10 13:20:05;;;;;;;2.83;1.70;;;;;;;;;;5007995;28;20109;-54
2022/01/10 13:22:35;;;;;;;2.50;1.90;;;;;;;;;;5007925;28;20057;-56
2022/01/10 13:25:00;;;;;;;3.53;1.77;;;;;;;;;;5006560;28;20048;-54
2022/01/10 13:27:32;;;;;;;2.88;1.75;;;;;;;;;;5011755;28;20133;-55
2022/01/10 13:29:58;;;;;;;2.58;1.73;;;;;;;;;;5009227;28;20030;-59
2022/01/10 13:32:27;;;;;;;2.58;1.50;;;;;;;;;;5007313;28;20030;-59
2022/01/10 13:35:03;;;;;;;2.47;1.67;;;;;;;;;;5023507;28;20031;-56
2022/01/10 13:37:33;;;;;;;2.83;1.77;;;;;;;;;;5020658;28;20889;-59
2022/01/10 13:40:08;;;;;;;3.10;1.80;;;;;;;;;;5006474;28;20689;-56
2022/01/10 13:42:41;;;;;;;3.25;1.83;;;;;;;;;;5009610;28;20049;-58
2022/01/10 13:45:06;;;;;;;2.83;1.80;;;;;;;;;;5007350;28;20037;-56
2022/01/10 13:47:58;;;;;;;2.08;1.45;;;;;;;;;;5005824;28;20823;-55
2022/01/10 13:50:24;;;;;;;2.72;1.80;;;;;;;;;;5004790;28;20044;-57
2022/01/10 13:53:02;;;;;;;2.78;1.67;;;;;;;;;;5013133;28;20038;-59
2022/01/10 13:55:27;;;;;;;3.83;1.65;;;;;;;;;;5010326;28;20480;-60
2022/01/10 13:57:52;;;;;;;5.10;2.07;;;;;;;;;;5023565;28;20040;-59
2022/01/10 14:00:28;;;;;;;2.70;1.80;;;;;;;;;;5024808;28;20037;-57
2022/01/10 14:02:54;;;;;;;3.00;1.60;;;;;;;;;;5023903;28;20033;-58
2022/01/10 14:05:26;;;;;;;2.15;1.42;;;;;;;;;;5014814;28;20038;-54
2022/01/10 14:07:52;;;;;;;3.05;1.70;;;;;;;;;;5013512;28;20052;-58
2022/01/10 14:10:18;;;;;;;3.55;1.60;;;;;;;;;;5015727;28;20030;-58
2022/01/10 14:12:43;;;;;;;2.78;1.73;;;;;;;;;;5005089;28;20013;-58
2022/01/10 14:15:08;;;;;;;3.07;1.60;;;;;;;;;;5012807;28;20025;-57
2022/01/10 14:17:34;;;;;;;3.42;1.42;;;;;;;;;;5019730;28;20277;-54
2022/01/10 14:19:59;;;;;;;2.10;1.40;;;;;;;;;;5007228;28;20107;-53
2022/01/10 14:22:25;;;;;;;3.67;1.70;;;;;;;;;;5007492;28;20705;-60
2022/01/10 14:24:50;;;;;;;2.42;1.70;;;;;;;;;;5005105;28;20459;-53
2022/01/10 14:27:16;;;;;;;2.75;1.65;;;;;;;;;;5004371;28;20104;-55
2022/01/10 14:29:42;;;;;;;2.13;1.53;;;;;;;;;;5004801;28;20041;-56
2022/01/10 14:32:08;;;;;;;2.10;1.60;;;;;;;;;;5004646;28;20029;-56
2022/01/10 14:34:33;;;;;;;3.38;1.60;;;;;;;;;;5004598;28;20112;-57
2022/01/10 14:36:58;;;;;;;2.37;1.60;;;;;;;;;;5003852;28;20492;-57
2022/01/10 14:39:23;;;;;;;2.40;1.27;;;;;;;;;;5004650;28;20335;-53
2022/01/10 14:41:49;;;;;;;2.10;1.40;;;;;;;;;;5004555;28;20029;-57
2022/01/10 14:44:18;;;;;;;2.00;1.50;;;;;;;;;;5004166;28;20036;-54
2022/01/10 14:46:43;;;;;;;2.47;1.60;;;;;;;;;;5006173;28;20678;-53
2022/01/10 14:49:08;;;;;;;3.17;1.70;;;;;;;;;;5008223;28;20083;-56
2022/01/10 14:51:33;;;;;;;2.10;1.30;;;;;;;;;;5011138;28;20026;-54